< < Back
Terminal Aerodrome Forecast


Current Version              Previous Versions:   1  2  3  4  5  6  7  8  9  

Terminal Aerodrome Forecast

108
FTUS42 KMLB 021727
TAFDAB
TAF
KDAB 021727Z 0218/0318 23007KT P6SM VCSH SCT035
     FM022000 14007KT P6SM VCTS SCT035CB BKN050
     FM030000 18004KT P6SM SCT040 BKN250
     FM030400 22003KT P6SM SCT250
     FM031300 27007KT P6SM SCT030 SCT250=



Latest METAR

621
SAUS80 KWBC 021900 RRA
MTRDAB
METAR KDAB 021853Z 07007KT 10SM FEW030 SCT050 SCT095 31/26 A3003 RMK AO2
RAE1759 SLP168 P0000 T03110256


USA.gov is the U.S. government's official web portal to all federal, state and local government web resources and services.